createdAt,value
2022-08-12T00:00:05.787Z,23.76
2022-08-12T00:01:05.740Z,23.74
2022-08-12T00:02:06.004Z,23.71
2022-08-12T00:03:05.835Z,23.60
2022-08-12T00:04:05.696Z,23.63
2022-08-12T00:05:05.713Z,23.61
2022-08-12T00:06:05.671Z,23.59
2022-08-12T00:07:05.662Z,23.59
2022-08-12T00:08:05.655Z,23.60
2022-08-12T00:09:05.685Z,23.59
2022-08-12T00:10:05.630Z,23.59
2022-08-12T00:11:08.636Z,23.52
2022-08-12T00:12:06.607Z,23.59
2022-08-12T00:13:05.615Z,23.52
2022-08-12T00:14:05.619Z,23.44
2022-08-12T00:15:05.574Z,23.44
2022-08-12T00:16:05.565Z,23.36
2022-08-12T00:17:05.573Z,23.42
2022-08-12T00:18:05.553Z,23.37
2022-08-12T00:19:05.538Z,23.37
2022-08-12T00:20:05.565Z,23.37
2022-08-12T00:21:05.513Z,23.36
2022-08-12T00:22:05.499Z,23.26
2022-08-12T00:23:05.489Z,23.23
2022-08-12T00:24:05.475Z,23.25
2022-08-12T00:25:05.527Z,23.25
2022-08-12T00:26:23.240Z,23.31
2022-08-12T00:27:06.464Z,23.31
2022-08-12T00:28:05.437Z,23.21
2022-08-12T00:29:05.456Z,23.23
2022-08-12T00:30:05.410Z,23.21
2022-08-12T00:31:05.418Z,23.21
2022-08-12T00:32:05.387Z,23.17
2022-08-12T00:33:05.380Z,23.26
2022-08-12T00:34:05.574Z,23.25
2022-08-12T00:35:08.715Z,23.08
2022-08-12T00:36:05.347Z,23.17
2022-08-12T00:37:12.862Z,23.07
2022-08-12T00:38:06.324Z,23.06
2022-08-12T00:39:05.344Z,23.01
2022-08-12T00:40:11.258Z,23.01
2022-08-12T00:41:06.294Z,22.96
2022-08-12T00:42:05.284Z,22.95
2022-08-12T00:43:05.275Z,22.93
2022-08-12T00:44:05.257Z,22.95
2022-08-12T00:45:05.277Z,22.89
2022-08-12T00:46:05.241Z,23.01
2022-08-12T00:47:05.233Z,22.92
2022-08-12T00:48:05.222Z,22.85
2022-08-12T00:49:05.212Z,22.89
2022-08-12T00:50:10.459Z,22.85
2022-08-12T00:51:05.192Z,22.81
2022-08-12T00:52:05.178Z,22.81
2022-08-12T00:53:05.166Z,22.74
2022-08-12T00:54:05.151Z,22.80
2022-08-12T00:55:05.179Z,22.67
2022-08-12T00:56:05.137Z,22.64
2022-08-12T00:57:05.130Z,22.68
2022-08-12T00:58:05.123Z,22.71
2022-08-12T00:59:05.102Z,22.74
2022-08-12T01:00:05.132Z,22.64
2022-08-12T01:01:05.158Z,22.68
2022-08-12T01:02:12.152Z,22.68
2022-08-12T01:03:06.062Z,22.58
2022-08-12T01:04:05.053Z,22.55
2022-08-12T01:05:05.081Z,22.58
2022-08-12T01:06:05.025Z,22.58
2022-08-12T01:07:05.018Z,22.59
2022-08-12T01:08:05.016Z,22.53
2022-08-12T01:09:04.996Z,22.44
2022-08-12T01:10:05.027Z,22.49
2022-08-12T01:11:04.977Z,22.48
2022-08-12T01:12:04.975Z,22.41
2022-08-12T01:13:18.709Z,22.41
2022-08-12T01:14:05.953Z,22.37
2022-08-12T01:15:04.934Z,22.36
2022-08-12T01:16:04.952Z,22.37
2022-08-12T01:17:04.913Z,22.38
2022-08-12T01:18:04.897Z,22.37
2022-08-12T01:19:04.885Z,22.36
2022-08-12T01:20:04.883Z,22.38
2022-08-12T01:21:04.897Z,22.28
2022-08-12T01:22:04.855Z,22.28
2022-08-12T01:23:04.843Z,22.27
2022-08-12T01:24:27.977Z,22.28
2022-08-12T01:25:05.823Z,22.27
2022-08-12T01:26:04.893Z,22.18
2022-08-12T01:27:07.523Z,22.16
2022-08-12T01:28:04.800Z,22.21
2022-08-12T01:29:04.786Z,22.16
2022-08-12T01:30:04.775Z,22.11
2022-08-12T01:31:04.763Z,22.15
2022-08-12T01:32:04.790Z,22.16
2022-08-12T01:33:04.739Z,22.12
2022-08-12T01:34:04.730Z,22.06
2022-08-12T01:35:04.725Z,22.07
2022-08-12T01:36:08.000Z,22.11
2022-08-12T01:37:04.703Z,22.13
2022-08-12T01:38:04.684Z,22.03
2022-08-12T01:39:04.680Z,22.01
2022-08-12T01:40:35.376Z,22.06
2022-08-12T01:41:05.708Z,22.04
2022-08-12T01:42:04.643Z,21.98
2022-08-12T01:43:04.640Z,22.01
2022-08-12T01:44:04.631Z,21.98
2022-08-12T01:45:04.615Z,21.93
2022-08-12T01:46:04.629Z,21.93
2022-08-12T01:47:04.593Z,21.93
2022-08-12T01:48:05.085Z,21.88
2022-08-12T01:49:04.578Z,21.85
2022-08-12T01:50:04.555Z,21.91
2022-08-12T01:51:06.419Z,21.82
2022-08-12T01:52:21.120Z,21.90
2022-08-12T01:53:05.526Z,21.80
2022-08-12T01:54:04.585Z,21.77
2022-08-12T01:55:04.506Z,21.80
2022-08-12T01:56:04.572Z,21.73
2022-08-12T01:57:04.482Z,21.82
2022-08-12T01:58:04.475Z,21.73
2022-08-12T01:59:04.463Z,21.77
2022-08-12T02:00:04.494Z,21.73
2022-08-12T02:01:04.476Z,21.73
2022-08-12T02:02:04.422Z,21.74
2022-08-12T02:03:04.416Z,21.65
2022-08-12T02:04:04.405Z,21.63
2022-08-12T02:05:04.432Z,21.66
2022-08-12T02:06:04.378Z,21.60
2022-08-12T02:07:04.372Z,21.62
2022-08-12T02:08:04.363Z,21.56
2022-08-12T02:09:04.362Z,21.63
2022-08-12T02:10:04.385Z,21.59
2022-08-12T02:11:04.340Z,21.63
2022-08-12T02:12:06.375Z,21.55
2022-08-12T02:13:04.312Z,21.51
2022-08-12T02:14:04.299Z,21.56
2022-08-12T02:15:04.290Z,21.51
2022-08-12T02:16:04.308Z,21.45
2022-08-12T02:17:04.274Z,21.38
2022-08-12T02:18:04.259Z,21.45
2022-08-12T02:19:04.242Z,21.45
2022-08-12T02:20:05.231Z,21.44
2022-08-12T02:21:04.227Z,21.43
2022-08-12T02:22:04.826Z,21.44
2022-08-12T02:23:04.205Z,21.43
2022-08-12T02:24:04.195Z,21.38
2022-08-12T02:25:04.184Z,21.35
2022-08-12T02:26:04.198Z,21.30
2022-08-12T02:27:04.158Z,21.35
2022-08-12T02:28:06.127Z,21.30
2022-08-12T02:29:04.148Z,21.28
2022-08-12T02:30:04.134Z,21.37
2022-08-12T02:31:07.453Z,21.35
2022-08-12T02:32:04.098Z,21.28
2022-08-12T02:33:04.103Z,21.32
2022-08-12T02:34:04.080Z,21.28
2022-08-12T02:35:04.075Z,21.32
2022-08-12T02:36:04.090Z,21.25
2022-08-12T02:37:04.134Z,21.22
2022-08-12T02:38:04.039Z,21.22
2022-08-12T02:39:04.033Z,21.18
2022-08-12T02:40:04.018Z,21.20
2022-08-12T02:41:04.038Z,21.18
2022-08-12T02:42:04.012Z,21.13
2022-08-12T02:43:03.984Z,21.11
2022-08-12T02:44:04.046Z,21.18
2022-08-12T02:45:03.965Z,21.19
2022-08-12T02:46:03.947Z,21.04
2022-08-12T02:47:03.946Z,21.10
2022-08-12T02:48:03.961Z,21.11
2022-08-12T02:49:03.920Z,21.07
2022-08-12T02:50:03.913Z,21.04
2022-08-12T02:51:03.900Z,21.04
2022-08-12T02:52:03.884Z,21.01
2022-08-12T02:53:03.902Z,20.97
2022-08-12T02:54:05.885Z,20.98
2022-08-12T02:55:03.856Z,20.95
2022-08-12T02:56:03.845Z,20.93
2022-08-12T02:57:03.825Z,20.92
2022-08-12T02:58:04.254Z,20.90
2022-08-12T02:59:04.809Z,20.93
2022-08-12T03:00:03.799Z,20.90
2022-08-12T03:01:03.882Z,20.85
2022-08-12T03:02:03.789Z,20.85
2022-08-12T03:03:03.808Z,20.83
2022-08-12T03:04:03.758Z,20.79
2022-08-12T03:05:03.749Z,20.83
2022-08-12T03:06:03.736Z,20.77
2022-08-12T03:07:03.735Z,20.79
2022-08-12T03:08:03.747Z,20.79
2022-08-12T03:09:03.715Z,20.79
2022-08-12T03:10:06.958Z,20.75
2022-08-12T03:11:04.700Z,20.79
2022-08-12T03:12:03.713Z,20.73
2022-08-12T03:13:03.661Z,20.71
2022-08-12T03:14:03.659Z,20.71
2022-08-12T03:15:03.636Z,20.68
2022-08-12T03:16:03.623Z,20.71
2022-08-12T03:17:03.641Z,20.65
2022-08-12T03:18:26.330Z,20.67
2022-08-12T03:19:04.597Z,20.64
2022-08-12T03:20:09.140Z,20.70
2022-08-12T03:21:04.572Z,20.56
2022-08-12T03:22:09.179Z,20.60
2022-08-12T03:23:04.578Z,20.56
2022-08-12T03:24:03.544Z,20.53
2022-08-12T03:25:03.548Z,20.56
2022-08-12T03:26:03.632Z,20.53
2022-08-12T03:27:03.512Z,20.58
2022-08-12T03:28:03.530Z,20.44
2022-08-12T03:29:03.489Z,20.53
2022-08-12T03:30:03.472Z,20.52
2022-08-12T03:31:03.469Z,20.48
2022-08-12T03:32:03.459Z,20.42
2022-08-12T03:33:03.446Z,20.37
2022-08-12T03:34:03.603Z,20.39
2022-08-12T03:35:03.428Z,20.41
2022-08-12T03:36:03.413Z,20.37
2022-08-12T03:37:03.399Z,20.36
2022-08-12T03:38:03.451Z,20.37
2022-08-12T03:39:03.416Z,20.39
2022-08-12T03:40:03.451Z,20.39
2022-08-12T03:41:03.355Z,20.39
2022-08-12T03:42:03.357Z,20.27
2022-08-12T03:43:03.341Z,20.29
2022-08-12T03:44:03.367Z,20.27
2022-08-12T03:45:03.351Z,20.36
2022-08-12T03:46:03.301Z,20.36
2022-08-12T03:47:03.304Z,20.39
2022-08-12T03:48:03.284Z,20.34
2022-08-12T03:49:03.304Z,20.36
2022-08-12T03:50:03.266Z,20.33
2022-08-12T03:51:03.248Z,20.34
2022-08-12T03:52:03.238Z,20.30
2022-08-12T03:53:03.230Z,20.33
2022-08-12T03:54:03.247Z,20.18
2022-08-12T03:55:03.207Z,20.27
2022-08-12T03:56:03.195Z,20.19
2022-08-12T03:57:03.186Z,20.25
2022-08-12T03:58:03.212Z,20.23
2022-08-12T03:59:03.169Z,20.25
2022-08-12T04:00:03.151Z,20.23
2022-08-12T04:01:03.221Z,20.18
2022-08-12T04:02:03.128Z,20.09
2022-08-12T04:03:03.150Z,20.19
2022-08-12T04:04:03.113Z,20.18
2022-08-12T04:05:03.098Z,20.15
2022-08-12T04:06:03.099Z,20.23
2022-08-12T04:07:03.074Z,20.14
2022-08-12T04:08:03.251Z,20.08
2022-08-12T04:09:03.067Z,20.07
2022-08-12T04:10:03.050Z,20.05
2022-08-12T04:11:03.036Z,20.08
2022-08-12T04:12:03.070Z,20.07
2022-08-12T04:13:03.019Z,20.00
2022-08-12T04:14:03.031Z,20.02
2022-08-12T04:15:02.995Z,20.05
2022-08-12T04:16:02.982Z,19.99
2022-08-12T04:17:02.971Z,20.02
2022-08-12T04:18:06.339Z,19.99
2022-08-12T04:19:03.101Z,19.97
2022-08-12T04:20:02.942Z,20.02
2022-08-12T04:21:02.929Z,20.00
2022-08-12T04:22:03.774Z,19.86
2022-08-12T04:23:02.908Z,19.96
2022-08-12T04:24:02.920Z,19.90
2022-08-12T04:25:03.108Z,19.97
2022-08-12T04:26:02.898Z,19.90
2022-08-12T04:27:02.862Z,19.96
2022-08-12T04:28:13.036Z,19.94
2022-08-12T04:29:03.878Z,19.89
2022-08-12T04:30:29.921Z,19.87
2022-08-12T04:31:03.815Z,19.87
2022-08-12T04:32:02.820Z,19.82
2022-08-12T04:33:02.830Z,19.78
2022-08-12T04:34:02.789Z,19.86
2022-08-12T04:35:02.773Z,19.82
2022-08-12T04:36:02.770Z,19.86
2022-08-12T04:37:02.757Z,19.86
2022-08-12T04:38:02.769Z,19.77
2022-08-12T04:39:02.737Z,19.74
2022-08-12T04:40:02.730Z,19.75
2022-08-12T04:41:02.718Z,19.77
2022-08-12T04:42:02.704Z,19.77
2022-08-12T04:43:02.718Z,19.75
2022-08-12T04:44:02.766Z,19.77
2022-08-12T04:45:02.673Z,19.72
2022-08-12T04:46:02.675Z,19.72
2022-08-12T04:47:02.685Z,19.82
2022-08-12T04:48:02.909Z,19.77
2022-08-12T04:49:02.632Z,19.71
2022-08-12T04:50:02.619Z,19.72
2022-08-12T04:51:03.606Z,19.64
2022-08-12T04:52:02.633Z,19.70
2022-08-12T04:53:02.588Z,19.74
2022-08-12T04:54:02.578Z,19.70
2022-08-12T04:55:02.571Z,19.64
2022-08-12T04:56:02.555Z,19.71
2022-08-12T04:57:03.623Z,19.64
2022-08-12T04:58:02.564Z,19.71
2022-08-12T04:59:02.526Z,19.70
2022-08-12T05:00:02.523Z,19.64
2022-08-12T05:01:07.454Z,19.62
2022-08-12T05:02:02.524Z,19.68
2022-08-12T05:03:02.612Z,19.67
2022-08-12T05:04:02.469Z,19.59
2022-08-12T05:05:02.455Z,19.74
2022-08-12T05:06:02.447Z,19.70
2022-08-12T05:07:02.468Z,19.72
2022-08-12T05:08:02.418Z,19.71
2022-08-12T05:09:02.408Z,19.68
2022-08-12T05:10:03.398Z,19.70
2022-08-12T05:11:02.399Z,19.74
2022-08-12T05:12:02.415Z,19.77
2022-08-12T05:13:02.394Z,19.74
2022-08-12T05:14:02.385Z,19.74
2022-08-12T05:15:02.348Z,19.70
2022-08-12T05:16:04.619Z,19.74
2022-08-12T05:17:02.362Z,19.77
2022-08-12T05:18:19.374Z,19.75
2022-08-12T05:19:03.305Z,19.77
2022-08-12T05:20:02.324Z,19.77
2022-08-12T05:21:02.927Z,19.81
2022-08-12T05:22:02.274Z,19.72
2022-08-12T05:23:10.033Z,19.74
2022-08-12T05:24:03.263Z,19.74
2022-08-12T05:25:02.291Z,19.72
2022-08-12T05:26:02.232Z,19.77
2022-08-12T05:27:02.227Z,19.75
2022-08-12T05:28:02.209Z,19.75
2022-08-12T05:29:02.199Z,19.78
2022-08-12T05:30:06.953Z,19.82
2022-08-12T05:31:03.230Z,19.78
2022-08-12T05:32:02.171Z,19.79
2022-08-12T05:33:02.158Z,19.84
2022-08-12T05:34:02.155Z,19.86
2022-08-12T05:35:02.143Z,19.87
2022-08-12T05:36:02.156Z,19.90
2022-08-12T05:37:02.110Z,19.90
2022-08-12T05:38:02.099Z,19.93
2022-08-12T05:39:02.089Z,19.86
2022-08-12T05:40:05.676Z,19.99
2022-08-12T05:41:03.105Z,19.96
2022-08-12T05:42:02.057Z,20.05
2022-08-12T05:43:02.051Z,20.08
2022-08-12T05:44:02.075Z,20.00
2022-08-12T05:45:02.022Z,20.00
2022-08-12T05:46:02.013Z,20.05
2022-08-12T05:47:02.003Z,20.08
2022-08-12T05:48:01.989Z,20.11
2022-08-12T05:49:02.072Z,20.17
2022-08-12T05:50:01.974Z,20.17
2022-08-12T05:51:01.960Z,20.18
2022-08-12T05:52:01.952Z,20.22
2022-08-12T05:53:01.944Z,20.25
2022-08-12T05:54:01.961Z,20.30
2022-08-12T05:55:01.921Z,20.25
2022-08-12T05:56:01.913Z,20.27
2022-08-12T05:57:01.897Z,20.32
2022-08-12T05:58:01.892Z,20.36
2022-08-12T05:59:01.896Z,20.37
2022-08-12T06:00:01.865Z,20.34
2022-08-12T06:02:09.752Z,20.41
2022-08-12T06:02:10.361Z,20.36
2022-08-12T06:03:02.937Z,20.42
2022-08-12T06:04:01.829Z,20.39
2022-08-12T06:05:01.810Z,20.36
2022-08-12T06:06:01.798Z,20.44
2022-08-12T06:07:01.950Z,20.42
2022-08-12T06:08:03.166Z,20.41
2022-08-12T06:09:01.766Z,20.52
2022-08-12T06:10:01.756Z,20.50
2022-08-12T06:11:01.749Z,20.56
2022-08-12T06:12:06.037Z,20.56
2022-08-12T06:13:01.736Z,20.56
2022-08-12T06:14:01.711Z,20.60
2022-08-12T06:15:02.715Z,20.63
2022-08-12T06:16:01.696Z,20.70
2022-08-12T06:17:01.682Z,20.73
2022-08-12T06:18:01.699Z,20.74
2022-08-12T06:19:01.658Z,20.80
2022-08-12T06:20:26.536Z,20.79
2022-08-12T06:21:02.716Z,20.89
2022-08-12T06:22:01.623Z,20.90
2022-08-12T06:23:01.670Z,20.93
2022-08-12T06:24:01.610Z,20.88
2022-08-12T06:25:01.594Z,20.98
2022-08-12T06:26:01.585Z,21.01
2022-08-12T06:27:01.570Z,20.97
2022-08-12T06:28:06.440Z,21.04
2022-08-12T06:29:02.557Z,21.08
2022-08-12T06:30:07.021Z,21.08
2022-08-12T06:31:24.823Z,21.08
2022-08-12T06:32:02.521Z,21.18
2022-08-12T06:33:18.425Z,21.19
2022-08-12T06:35:23.436Z,21.18
2022-08-12T06:35:25.315Z,21.22
2022-08-12T06:36:02.474Z,21.25
2022-08-12T06:37:01.508Z,21.28
2022-08-12T06:38:01.450Z,21.30
2022-08-12T06:39:01.461Z,21.29
2022-08-12T06:40:03.804Z,21.32
2022-08-12T06:41:01.415Z,21.37
2022-08-12T06:42:02.746Z,21.47
2022-08-12T06:43:02.411Z,21.45
2022-08-12T06:44:05.726Z,21.44
2022-08-12T06:45:02.374Z,21.43
2022-08-12T06:46:01.366Z,21.51
2022-08-12T06:47:01.420Z,21.56
2022-08-12T06:48:01.343Z,21.62
2022-08-12T06:49:01.341Z,21.63
2022-08-12T06:50:01.325Z,21.63
2022-08-12T06:51:01.323Z,21.65
2022-08-12T06:52:01.334Z,21.73
2022-08-12T06:53:01.289Z,21.78
2022-08-12T06:54:01.283Z,21.75
2022-08-12T06:55:01.310Z,21.81
2022-08-12T06:56:01.257Z,21.88
2022-08-12T06:57:04.826Z,21.81
2022-08-12T06:58:07.459Z,21.88
2022-08-12T06:59:02.229Z,21.96
2022-08-12T07:00:01.215Z,22.00
2022-08-12T07:01:01.294Z,21.98
2022-08-12T07:02:01.200Z,21.98
2022-08-12T07:03:01.185Z,22.01
2022-08-12T07:04:33.396Z,22.16
2022-08-12T07:05:02.163Z,22.11
2022-08-12T07:06:01.198Z,22.18
2022-08-12T07:07:01.144Z,22.15
2022-08-12T07:08:01.132Z,22.18
2022-08-12T07:09:01.121Z,22.23
2022-08-12T07:10:06.330Z,22.30
2022-08-12T07:11:02.165Z,22.27
2022-08-12T07:12:01.090Z,22.36
2022-08-12T07:13:01.088Z,22.41
2022-08-12T07:14:11.411Z,22.43
2022-08-12T07:15:02.528Z,22.46
2022-08-12T07:16:01.048Z,22.51
2022-08-12T07:17:01.062Z,22.51
2022-08-12T07:18:01.027Z,22.59
2022-08-12T07:19:01.010Z,22.66
2022-08-12T07:20:04.451Z,22.68
2022-08-12T07:21:00.990Z,22.67
2022-08-12T07:22:02.618Z,22.81
2022-08-12T07:23:00.969Z,22.86
2022-08-12T07:24:00.958Z,22.83
2022-08-12T07:25:00.952Z,22.89
2022-08-12T07:26:00.944Z,22.98
2022-08-12T07:27:00.932Z,22.96
2022-08-12T07:28:00.949Z,23.07
2022-08-12T07:29:01.913Z,23.06
2022-08-12T07:30:04.797Z,23.14
2022-08-12T07:31:00.885Z,23.21
2022-08-12T07:32:00.880Z,23.23
2022-08-12T07:33:01.826Z,23.28
2022-08-12T07:34:00.849Z,23.31
2022-08-12T07:35:00.840Z,23.28
2022-08-12T07:36:00.838Z,23.33
2022-08-12T07:37:00.825Z,23.36
2022-08-12T07:38:00.846Z,23.48
2022-08-12T07:39:00.815Z,23.55
2022-08-12T07:40:01.440Z,23.54
2022-08-12T07:41:00.783Z,23.52
2022-08-12T07:42:00.764Z,23.69
2022-08-12T07:43:00.780Z,23.66
2022-08-12T07:44:04.495Z,23.71
2022-08-12T07:45:00.733Z,23.74
2022-08-12T07:46:00.724Z,23.86
2022-08-12T07:47:00.716Z,23.88
2022-08-12T07:48:00.736Z,23.89
2022-08-12T07:49:00.687Z,24.04
2022-08-12T07:50:03.484Z,24.01
2022-08-12T07:51:01.661Z,24.07
2022-08-12T07:52:00.655Z,24.13
2022-08-12T07:53:00.678Z,24.22
2022-08-12T07:54:02.969Z,24.25
2022-08-12T07:55:00.636Z,24.31
2022-08-12T07:56:00.611Z,24.38
2022-08-12T07:57:00.606Z,24.41
2022-08-12T07:58:00.637Z,24.53
2022-08-12T07:59:00.580Z,24.53
2022-08-12T08:00:00.575Z,24.63
2022-08-12T08:01:00.564Z,24.60
2022-08-12T08:02:00.610Z,24.75
2022-08-12T08:03:00.566Z,24.71
2022-08-12T08:04:00.530Z,24.78
2022-08-12T08:05:00.555Z,24.86
2022-08-12T08:06:03.185Z,24.93
2022-08-12T08:07:00.496Z,24.94
2022-08-12T08:08:00.495Z,25.06
2022-08-12T08:09:00.477Z,25.03
2022-08-12T08:10:00.729Z,25.12
2022-08-12T08:11:04.147Z,25.22
2022-08-12T08:12:00.455Z,25.27
2022-08-12T08:13:00.435Z,25.27
2022-08-12T08:14:00.428Z,25.31
2022-08-12T08:15:00.442Z,25.34
2022-08-12T08:16:03.472Z,25.38
2022-08-12T08:17:00.388Z,25.48
2022-08-12T08:18:00.379Z,25.52
2022-08-12T08:19:00.370Z,25.59
2022-08-12T08:20:03.486Z,25.67
2022-08-12T08:21:00.345Z,25.64
2022-08-12T08:22:00.336Z,25.68
2022-08-12T08:23:00.321Z,25.81
2022-08-12T08:24:05.103Z,25.83
2022-08-12T08:25:04.496Z,25.86
2022-08-12T08:26:01.295Z,25.96
2022-08-12T08:27:00.282Z,26.03
2022-08-12T08:28:00.270Z,26.11
2022-08-12T08:29:00.268Z,26.07
2022-08-12T08:30:00.255Z,26.23
2022-08-12T08:31:00.263Z,26.23
2022-08-12T08:32:00.228Z,26.34
2022-08-12T08:33:00.220Z,26.39
2022-08-12T08:34:27.573Z,26.42
2022-08-12T08:35:01.230Z,26.48
2022-08-12T08:36:00.183Z,26.48
2022-08-12T08:37:00.175Z,26.53
2022-08-12T08:38:00.175Z,26.60
2022-08-12T08:39:00.161Z,26.67
2022-08-12T08:40:00.299Z,26.65
2022-08-12T08:41:00.255Z,26.73
2022-08-12T08:42:16.364Z,26.79
2022-08-12T08:43:01.111Z,26.88
2022-08-12T08:44:00.098Z,26.80
2022-08-12T08:45:00.103Z,26.89
2022-08-12T08:46:00.157Z,26.95
2022-08-12T08:47:00.073Z,27.04
2022-08-12T08:48:00.498Z,26.97
2022-08-12T08:49:00.051Z,27.16
2022-08-12T08:50:00.036Z,27.17
2022-08-12T08:51:04.797Z,27.23
2022-08-12T08:52:01.021Z,27.22
2022-08-12T08:53:00.000Z,27.41
2022-08-12T08:53:59.998Z,27.44
2022-08-12T08:54:59.983Z,27.41
2022-08-12T08:56:05.847Z,27.50
2022-08-12T08:57:01.005Z,27.54
2022-08-12T08:57:59.970Z,27.54
2022-08-12T08:58:59.945Z,27.64
2022-08-12T08:59:59.932Z,27.61
2022-08-12T09:00:59.948Z,27.75
2022-08-12T09:02:00.079Z,27.78
2022-08-12T09:03:00.284Z,27.87
2022-08-12T09:05:11.116Z,28.01
2022-08-12T09:05:12.893Z,27.94
2022-08-12T09:06:02.054Z,28.05
2022-08-12T09:06:59.884Z,28.07
2022-08-12T09:08:14.007Z,28.15
2022-08-12T09:09:00.890Z,28.15
2022-08-12T09:11:00.906Z,28.30
2022-08-12T09:12:10.683Z,28.42
2022-08-12T09:13:00.923Z,28.47
2022-08-12T09:15:00.805Z,28.71
2022-08-12T09:16:00.773Z,28.69
2022-08-12T09:16:59.756Z,28.87
2022-08-12T09:17:59.738Z,28.89
2022-08-12T09:18:59.735Z,28.90
2022-08-12T09:19:59.748Z,29.02
2022-08-12T09:20:59.722Z,29.22
2022-08-12T09:22:00.290Z,29.37
2022-08-12T09:22:59.687Z,29.41
2022-08-12T09:24:07.576Z,29.44
2022-08-12T09:25:01.222Z,29.56
2022-08-12T09:26:03.834Z,29.61
2022-08-12T09:26:59.645Z,29.70
2022-08-12T09:28:04.971Z,29.73
2022-08-12T09:29:00.979Z,29.83
2022-08-12T09:30:11.841Z,29.80
2022-08-12T09:31:00.659Z,29.91
2022-08-12T09:32:07.021Z,29.92
2022-08-12T09:33:05.609Z,29.93
2022-08-12T09:34:29.363Z,29.92
2022-08-12T09:35:00.560Z,29.95
2022-08-12T09:36:03.247Z,30.00
2022-08-12T09:37:02.546Z,29.99
2022-08-12T09:38:00.977Z,30.11
2022-08-12T09:39:01.115Z,30.13
2022-08-12T09:40:06.242Z,30.15
2022-08-12T09:42:08.370Z,30.21
2022-08-12T09:42:08.765Z,30.21
2022-08-12T09:43:17.965Z,30.14
2022-08-12T09:44:00.967Z,30.18
2022-08-12T09:45:03.494Z,30.24
2022-08-12T09:46:06.823Z,30.21
2022-08-12T09:47:03.270Z,30.28
2022-08-12T09:48:00.467Z,30.29
2022-08-12T09:48:59.419Z,30.35
2022-08-12T09:49:59.407Z,30.35
2022-08-12T09:51:01.576Z,30.40
2022-08-12T09:51:59.382Z,30.33
2022-08-12T09:53:03.840Z,30.40
2022-08-12T09:54:06.822Z,30.52
2022-08-12T09:55:02.607Z,30.53
2022-08-12T09:56:41.115Z,30.55
2022-08-12T09:58:07.297Z,30.62
2022-08-12T09:58:46.968Z,30.62
2022-08-12T09:59:01.649Z,30.71
2022-08-12T10:00:16.791Z,30.67
2022-08-12T10:01:00.439Z,30.73
2022-08-12T10:02:52.743Z,30.70
2022-08-12T10:03:01.081Z,30.82
2022-08-12T10:04:04.432Z,30.85
2022-08-12T10:05:00.245Z,30.85
2022-08-12T10:06:27.924Z,30.93
2022-08-12T10:07:00.758Z,30.89
2022-08-12T10:07:59.250Z,30.97
2022-08-12T10:08:59.207Z,31.01
2022-08-12T10:09:59.338Z,31.10
2022-08-12T10:10:59.184Z,31.14
2022-08-12T10:12:11.394Z,31.23
2022-08-12T10:13:07.134Z,31.34
2022-08-12T10:14:00.162Z,31.56
2022-08-12T10:14:59.144Z,31.67
2022-08-12T10:16:02.225Z,31.91
2022-08-12T10:17:00.225Z,32.06
2022-08-12T10:18:06.924Z,32.31
2022-08-12T10:19:00.100Z,32.48
2022-08-12T10:19:59.426Z,32.72
2022-08-12T10:20:59.086Z,32.99
2022-08-12T10:21:59.065Z,33.22
2022-08-12T10:22:59.109Z,33.44
2022-08-12T10:23:59.049Z,33.63
2022-08-12T10:24:59.038Z,33.74
2022-08-12T10:26:35.442Z,33.97
2022-08-12T10:27:00.015Z,34.15
2022-08-12T10:28:05.107Z,34.30
2022-08-12T10:29:02.606Z,34.48
2022-08-12T10:30:38.908Z,34.75
2022-08-12T10:31:01.427Z,34.91
2022-08-12T10:32:21.649Z,35.10
2022-08-12T10:33:00.224Z,35.32
2022-08-12T10:34:06.129Z,35.42
2022-08-12T10:34:59.944Z,35.75
2022-08-12T10:35:58.925Z,35.77
2022-08-12T10:37:10.507Z,35.88
2022-08-12T10:38:37.171Z,35.95
2022-08-12T10:38:59.898Z,36.20
2022-08-12T10:40:07.138Z,36.30
2022-08-12T10:40:59.933Z,36.35
2022-08-12T10:42:00.202Z,36.44
2022-08-12T10:43:00.674Z,36.51
2022-08-12T10:43:58.856Z,36.54
2022-08-12T10:44:58.850Z,36.49
2022-08-12T10:45:58.828Z,36.51
2022-08-12T10:46:58.817Z,36.61
2022-08-12T10:48:07.774Z,36.48
2022-08-12T10:49:06.642Z,36.56
2022-08-12T10:50:03.457Z,36.48
2022-08-12T10:51:03.503Z,36.47
2022-08-12T10:52:32.496Z,36.40
2022-08-12T10:52:59.795Z,36.30
2022-08-12T10:54:00.464Z,36.32
2022-08-12T10:54:58.739Z,36.27
2022-08-12T10:55:58.728Z,36.30
2022-08-12T10:56:58.715Z,36.25
2022-08-12T10:58:28.373Z,36.17
2022-08-12T10:58:59.727Z,36.23
2022-08-12T11:00:30.399Z,36.14
2022-08-12T11:01:26.128Z,36.15
2022-08-12T11:04:18.439Z,36.09
2022-08-12T11:04:24.244Z,36.15
2022-08-12T11:04:26.563Z,36.25
2022-08-12T11:05:00.012Z,36.30
2022-08-12T11:07:03.292Z,36.40
2022-08-12T11:07:09.189Z,36.33
2022-08-12T11:08:38.875Z,36.40
2022-08-12T11:08:59.638Z,36.41
2022-08-12T11:10:01.496Z,36.48
2022-08-12T11:10:58.578Z,36.44
2022-08-12T11:12:37.054Z,36.41
2022-08-12T11:13:00.682Z,36.49
2022-08-12T11:13:59.854Z,36.52
2022-08-12T11:14:58.723Z,36.54
2022-08-12T11:16:03.823Z,36.52
2022-08-12T11:17:34.949Z,36.51
2022-08-12T11:18:03.041Z,36.44
2022-08-12T11:18:58.554Z,36.48
2022-08-12T11:19:58.519Z,36.49
2022-08-12T11:20:58.479Z,36.47
2022-08-12T11:22:01.082Z,36.33
2022-08-12T11:22:59.370Z,36.32
2022-08-12T11:23:58.454Z,36.33
2022-08-12T11:24:58.463Z,36.20
2022-08-12T11:26:01.424Z,36.25
2022-08-12T11:26:59.556Z,36.17
2022-08-12T11:27:58.418Z,36.13
2022-08-12T11:29:05.384Z,36.14
2022-08-12T11:30:02.529Z,36.07
2022-08-12T11:30:59.401Z,36.14
2022-08-12T11:32:02.425Z,36.00
2022-08-12T11:32:58.359Z,36.09
2022-08-12T11:34:06.098Z,35.97
2022-08-12T11:34:59.621Z,36.00
2022-08-12T11:35:59.800Z,35.97
2022-08-12T11:36:58.561Z,35.95
2022-08-12T11:37:59.403Z,35.94
2022-08-12T11:38:58.298Z,35.97
2022-08-12T11:40:59.274Z,35.83
2022-08-12T11:41:58.229Z,35.97
2022-08-12T11:43:00.832Z,35.85
2022-08-12T11:43:59.361Z,35.98
2022-08-12T11:44:58.201Z,35.90
2022-08-12T11:45:58.232Z,35.98
2022-08-12T11:46:58.186Z,35.94
2022-08-12T11:47:58.169Z,36.02
2022-08-12T11:48:58.160Z,35.94
2022-08-12T11:49:58.154Z,35.95
2022-08-12T11:50:58.154Z,36.00
2022-08-12T11:51:58.233Z,36.00
2022-08-12T11:52:58.271Z,36.14
2022-08-12T11:54:01.176Z,36.13
2022-08-12T11:54:58.113Z,36.09
2022-08-12T11:55:58.096Z,36.13
2022-08-12T11:56:59.125Z,36.19
2022-08-12T11:58:40.497Z,36.20
2022-08-12T12:02:05.115Z,36.26
2022-08-12T12:02:59.077Z,36.32
2022-08-12T12:03:58.038Z,36.38
2022-08-12T12:04:58.011Z,36.40
2022-08-12T12:06:00.435Z,36.48
2022-08-12T12:07:06.806Z,36.54
2022-08-12T12:08:37.639Z,36.61
2022-08-12T12:09:00.633Z,36.56
2022-08-12T12:09:57.963Z,36.74
2022-08-12T12:10:57.979Z,36.74
2022-08-12T12:11:57.944Z,36.79
2022-08-12T12:12:57.974Z,36.88
2022-08-12T12:14:07.630Z,36.93
2022-08-12T12:15:03.121Z,37.04
2022-08-12T12:15:58.900Z,37.00
2022-08-12T12:16:57.911Z,37.15
2022-08-12T12:17:58.006Z,37.16
2022-08-12T12:18:57.947Z,37.22
2022-08-12T12:19:57.870Z,37.20
2022-08-12T12:20:57.871Z,37.23
2022-08-12T12:21:57.887Z,37.30
2022-08-12T12:22:59.659Z,37.30
2022-08-12T12:24:00.834Z,37.37
2022-08-12T12:24:57.886Z,37.35
2022-08-12T12:26:06.949Z,37.42
2022-08-12T12:27:00.262Z,37.47
2022-08-12T12:28:05.041Z,37.54
2022-08-12T12:28:58.780Z,37.50
2022-08-12T12:30:18.914Z,37.51
2022-08-12T12:30:58.758Z,37.49
2022-08-12T12:32:09.429Z,37.64
2022-08-12T12:32:58.781Z,37.61
2022-08-12T12:33:58.891Z,37.65
2022-08-12T12:35:18.458Z,37.70
2022-08-12T12:36:19.813Z,37.74
2022-08-12T12:36:58.705Z,37.69
2022-08-12T12:38:03.443Z,37.77
2022-08-12T12:39:00.108Z,37.77
2022-08-12T12:39:57.729Z,37.88
2022-08-12T12:40:57.656Z,37.91
2022-08-12T12:42:57.869Z,37.96
2022-08-12T12:43:00.480Z,37.98
2022-08-12T12:44:03.949Z,37.99
2022-08-12T12:44:58.623Z,37.96
2022-08-12T12:45:57.610Z,37.98
2022-08-12T12:46:57.616Z,37.99
2022-08-12T12:47:57.631Z,38.01
2022-08-12T12:48:57.581Z,38.11
2022-08-12T12:49:57.570Z,38.16
2022-08-12T12:50:57.562Z,38.22
2022-08-12T12:52:19.910Z,38.26
2022-08-12T12:53:00.530Z,38.17
2022-08-12T12:54:07.666Z,38.13
2022-08-12T12:54:58.569Z,38.26
2022-08-12T12:55:57.512Z,38.26
2022-08-12T12:56:57.504Z,38.26
2022-08-12T12:58:03.215Z,38.25